Estación de Quillota

Ultimos registro cada 15 minutos 29
Estación Fecha / Hora Temperatura Humedad Lluvia Velocidad Dirección Radiación Presion
29 Quillota 05-05-2026 07:00 7,8 90 0 0,4 185 0 1013,4
28 Quillota 05-05-2026 06:45 8,6 90 0 0,4 185 0 1013,3
27 Quillota 05-05-2026 06:30 8,1 90 0 0,9 185 0 1013
26 Quillota 05-05-2026 06:15 8,6 91 0 0 185 0 1013
25 Quillota 05-05-2026 06:00 9,1 92 0 0,9 130 0 1013,1
24 Quillota 05-05-2026 05:45 9 92 0 2,7 282 0 1012,7
23 Quillota 05-05-2026 05:30 8 91 0 0,4 185 0 1013,3
22 Quillota 05-05-2026 05:15 8,6 92 0 0 96 0 1012,9
21 Quillota 05-05-2026 05:00 8,1 92 0 0 111 0 1013
20 Quillota 05-05-2026 04:45 8,2 91 0 0 112 0 1012,8
19 Quillota 05-05-2026 04:30 7,8 93 0 0,4 106 0 1013,1
18 Quillota 05-05-2026 04:15 7,4 91 0 0 53 0 1012,7
17 Quillota 05-05-2026 04:00 7,7 91 0 0 53 0 1012,8
16 Quillota 05-05-2026 03:45 7,5 90 0 0 53 0 1012,9
15 Quillota 05-05-2026 03:30 8,3 90 0 0 73 0 1012,5
14 Quillota 05-05-2026 03:15 8,7 92 0 0,9 75 0 1012,7
13 Quillota 05-05-2026 03:00 7,8 90 0 0,4 75 0 1012,6
12 Quillota 05-05-2026 02:45 8,3 90 0 0 185 0 1012,6
11 Quillota 05-05-2026 02:30 8,9 92 0 0,9 162 0 1013
10 Quillota 05-05-2026 02:15 8,4 91 0 0 80 0 1013,3
9 Quillota 05-05-2026 02:00 8,4 91 0 0 80 0 1013,3
8 Quillota 05-05-2026 01:45 8,4 89 0 0 185 0 1013,4
7 Quillota 05-05-2026 01:30 9,1 89 0 0 185 0 1013,6
6 Quillota 05-05-2026 01:15 9,1 91 0 0 185 0 1013,8
5 Quillota 05-05-2026 01:00 9,1 89 0 0 185 0 1013,7
4 Quillota 05-05-2026 00:45 9,7 90 0 0 78 0 1014
3 Quillota 05-05-2026 00:30 10,1 89 0 0 79 0 1014,1
2 Quillota 05-05-2026 00:15 10,8 90 0 0,4 79 0 1014,1
1 Quillota 05-05-2026 00:00 10,2 89 0 0,4 185 0 1014,1